Time;durP1;ratioP1;P1;durP2;ratioP2;P2;SDS_P1;SDS_P2;PMS_P1;PMS_P2;Temp;Humidity;BMP_temperature;BMP_pressure;BME280_temperature;BME280_humidity;BME280_pressure;Samples;Min_cycle;Max_cycle;Signal;HPM_P1;HPM_P2
2022/06/30 00:00:40;;;;;;;9.73;7.05;;;21.40;99.90;;;;;;5112033;28;20039;-46
2022/06/30 00:03:06;;;;;;;9.20;6.78;;;21.50;99.90;;;;;;5073244;28;1094594;-48
2022/06/30 00:05:32;;;;;;;9.50;6.93;;;21.50;99.90;;;;;;5112512;28;20088;-48
2022/06/30 00:07:58;;;;;;;11.15;7.18;;;21.50;99.90;;;;;;5112345;28;20054;-46
2022/06/30 00:10:23;;;;;;;10.80;7.22;;;21.30;99.90;;;;;;5112409;28;20027;-50
2022/06/30 00:12:49;;;;;;;8.35;7.15;;;21.30;99.90;;;;;;5112569;28;20073;-50
2022/06/30 00:15:15;;;;;;;8.52;7.03;;;21.30;99.90;;;;;;5112787;27;20122;-46
2022/06/30 00:17:40;;;;;;;11.13;7.70;;;21.30;99.90;;;;;;5077294;28;20046;-46
2022/06/30 00:20:07;;;;;;;9.57;7.82;;;21.20;99.90;;;;;;5077402;28;20474;-48
2022/06/30 00:22:32;;;;;;;12.07;8.55;;;21.20;99.90;;;;;;5112203;28;20035;-47
2022/06/30 00:24:58;;;;;;;11.98;7.97;;;21.20;99.90;;;;;;5112664;28;20039;-51
2022/06/30 00:27:24;;;;;;;8.85;7.93;;;21.20;99.90;;;;;;5111043;28;20518;-50
2022/06/30 00:29:49;;;;;;;9.75;7.80;;;21.20;99.90;;;;;;5094186;28;20114;-50
2022/06/30 00:32:15;;;;;;;11.90;8.60;;;21.20;99.90;;;;;;5112165;28;20039;-47
2022/06/30 00:34:41;;;;;;;9.32;7.72;;;21.10;99.90;;;;;;5112202;28;20792;-51
2022/06/30 00:37:07;;;;;;;10.60;7.95;;;21.00;99.90;;;;;;5112350;28;20067;-52
2022/06/30 00:39:33;;;;;;;11.15;8.52;;;21.00;99.90;;;;;;5111569;28;20069;-47
2022/06/30 00:41:58;;;;;;;9.40;8.05;;;20.90;99.90;;;;;;5112050;27;20036;-49
2022/06/30 00:44:24;;;;;;;11.75;8.23;;;20.90;99.90;;;;;;5111993;27;20431;-47
2022/06/30 00:46:50;;;;;;;11.70;8.25;;;20.80;99.90;;;;;;5093586;28;20425;-47
2022/06/30 00:49:19;;;;;;;9.60;8.07;;;20.80;99.90;;;;;;5114660;27;20183;-49
2022/06/30 00:51:45;;;;;;;9.98;7.95;;;20.80;99.90;;;;;;5131738;27;20039;-52
2022/06/30 00:54:11;;;;;;;10.15;8.48;;;20.80;99.90;;;;;;5113886;27;20042;-51
2022/06/30 00:56:44;;;;;;;8.63;7.25;;;20.70;99.90;;;;;;5131878;27;20063;-50
2022/06/30 00:59:13;;;;;;;10.07;7.90;;;20.70;99.90;;;;;;5109977;27;20116;-49
2022/06/30 01:01:41;;;;;;;9.63;7.75;;;20.70;99.90;;;;;;5110285;28;20036;-48
2022/06/30 01:04:08;;;;;;;9.23;7.70;;;20.70;99.90;;;;;;5125843;27;20055;-49
2022/06/30 01:06:34;;;;;;;10.95;7.60;;;20.70;99.90;;;;;;5131939;27;20110;-50
2022/06/30 01:09:00;;;;;;;10.23;8.32;;;20.60;99.90;;;;;;5131729;27;20071;-51
2022/06/30 01:14:11;;;;;;;8.25;7.22;;;20.60;99.90;;;;;;5113445;27;20538;-49
2022/06/30 01:16:39;;;;;;;10.27;7.45;;;20.60;99.90;;;;;;5125951;27;20043;-48
2022/06/30 01:19:06;;;;;;;9.35;7.30;;;20.50;99.90;;;;;;5111330;28;20067;-50
2022/06/30 01:21:31;;;;;;;13.80;7.63;;;20.50;99.90;;;;;;5110167;28;20474;-51
2022/06/30 01:23:58;;;;;;;8.50;6.78;;;20.50;99.90;;;;;;5111100;27;20043;-48
2022/06/30 01:26:24;;;;;;;9.13;7.50;;;20.40;99.90;;;;;;5111578;28;20043;-49
2022/06/30 01:28:51;;;;;;;10.77;7.20;;;20.40;99.90;;;;;;5111205;28;20680;-48
2022/06/30 01:31:17;;;;;;;8.82;6.93;;;20.30;99.90;;;;;;5092817;28;20031;-48
2022/06/30 01:33:44;;;;;;;11.80;7.05;;;20.30;99.90;;;;;;5097040;27;20077;-48
2022/06/30 01:36:10;;;;;;;9.43;6.80;;;20.20;99.90;;;;;;5113094;27;20045;-50
2022/06/30 01:38:36;;;;;;;10.05;7.20;;;20.20;99.90;;;;;;5131029;27;20031;-50
2022/06/30 01:41:02;;;;;;;10.55;6.88;;;20.10;99.90;;;;;;5130912;27;20387;-47
2022/06/30 01:43:28;;;;;;;8.93;7.10;;;20.10;99.90;;;;;;5112934;27;20088;-48
2022/06/30 01:45:53;;;;;;;8.55;6.40;;;20.10;99.90;;;;;;5131165;27;20051;-47
2022/06/30 01:48:19;;;;;;;10.13;6.40;;;20.10;99.90;;;;;;5126514;27;20111;-51
2022/06/30 01:50:45;;;;;;;9.95;6.47;;;20.00;99.90;;;;;;5111117;28;20035;-47
2022/06/30 01:53:11;;;;;;;7.82;6.00;;;20.00;99.90;;;;;;5111026;28;20044;-49
2022/06/30 01:55:36;;;;;;;10.15;6.00;;;20.00;99.90;;;;;;5109583;28;20110;-49
2022/06/30 01:58:02;;;;;;;7.30;6.32;;;19.90;99.90;;;;;;5111204;28;20477;-52
2022/06/30 02:00:29;;;;;;;8.13;6.28;;;19.90;99.90;;;;;;5110534;28;20067;-47
2022/06/30 02:02:56;;;;;;;8.20;5.78;;;19.80;99.90;;;;;;5110568;28;20079;-50
2022/06/30 02:05:23;;;;;;;7.72;5.88;;;19.80;99.90;;;;;;5110774;28;20063;-50
2022/06/30 02:07:48;;;;;;;10.27;5.97;;;19.80;99.90;;;;;;5110769;28;20157;-48
2022/06/30 02:10:18;;;;;;;8.15;5.55;;;19.80;99.90;;;;;;5091898;28;20079;-51
2022/06/30 02:12:47;;;;;;;7.93;5.90;;;19.80;99.90;;;;;;5110753;28;20093;-49
2022/06/30 02:15:32;;;;;;;8.60;5.78;;;19.70;99.90;;;;;;5110795;28;20455;-48
2022/06/30 02:17:59;;;;;;;8.25;6.13;;;19.60;99.90;;;;;;5110503;28;20042;-47
2022/06/30 02:20:25;;;;;;;7.55;5.78;;;19.60;99.90;;;;;;5110774;28;20120;-48
2022/06/30 02:22:54;;;;;;;7.93;5.65;;;19.60;99.90;;;;;;5092452;28;20032;-51
2022/06/30 02:25:20;;;;;;;7.20;5.45;;;19.60;99.90;;;;;;5110598;28;20390;-51
2022/06/30 02:27:46;;;;;;;7.57;5.75;;;19.50;99.90;;;;;;5092549;28;20088;-51
2022/06/30 02:30:12;;;;;;;9.98;6.22;;;19.50;99.90;;;;;;5110771;28;20090;-50
2022/06/30 02:32:38;;;;;;;8.35;6.20;;;19.50;99.90;;;;;;5110559;28;20067;-50
2022/06/30 02:35:04;;;;;;;9.50;6.28;;;19.50;99.90;;;;;;5110722;28;20062;-47
2022/06/30 02:37:30;;;;;;;9.48;6.25;;;19.40;99.90;;;;;;5110354;28;20043;-51
2022/06/30 02:39:56;;;;;;;8.68;6.57;;;19.40;99.90;;;;;;5091433;28;20039;-50
2022/06/30 02:42:22;;;;;;;8.48;6.15;;;19.40;99.90;;;;;;5092488;28;20360;-49
2022/06/30 02:44:48;;;;;;;9.57;6.32;;;19.40;99.90;;;;;;5110464;28;20036;-49
2022/06/30 02:47:13;;;;;;;8.82;6.28;;;19.40;99.90;;;;;;5110628;28;20503;-49
2022/06/30 02:49:39;;;;;;;11.07;5.93;;;19.40;99.90;;;;;;5110341;28;20047;-49
2022/06/30 02:52:06;;;;;;;7.88;6.05;;;19.30;99.90;;;;;;5114101;27;20563;-50
2022/06/30 02:54:32;;;;;;;7.93;6.38;;;19.30;99.90;;;;;;5095527;28;20389;-49
2022/06/30 02:56:58;;;;;;;8.40;6.35;;;19.20;99.90;;;;;;5114118;28;20067;-50
2022/06/30 02:59:24;;;;;;;8.85;6.22;;;19.20;99.90;;;;;;5113884;28;20112;-47
2022/06/30 03:01:50;;;;;;;10.40;6.20;;;19.20;99.90;;;;;;5114289;28;20035;-47
2022/06/30 03:04:15;;;;;;;7.88;5.88;;;19.20;99.90;;;;;;5113771;28;20075;-47
2022/06/30 03:06:41;;;;;;;8.70;6.15;;;19.10;99.90;;;;;;5114088;28;20040;-47
2022/06/30 03:09:07;;;;;;;7.80;5.90;;;19.10;99.90;;;;;;5112400;28;20110;-48
2022/06/30 03:11:33;;;;;;;7.13;5.70;;;19.10;99.90;;;;;;5113674;28;20040;-48
2022/06/30 03:13:59;;;;;;;8.80;5.90;;;19.10;99.90;;;;;;5113708;28;20085;-51
2022/06/30 03:16:24;;;;;;;7.53;5.78;;;19.10;99.90;;;;;;5113804;27;20114;-49
2022/06/30 03:18:52;;;;;;;8.70;6.15;;;19.00;99.90;;;;;;5113193;28;20039;-49
2022/06/30 03:21:18;;;;;;;9.98;6.43;;;19.10;99.90;;;;;;5113257;27;20038;-51
2022/06/30 03:23:44;;;;;;;11.30;5.65;;;19.00;99.90;;;;;;5112209;28;20062;-47
2022/06/30 03:26:10;;;;;;;9.98;5.97;;;19.00;99.90;;;;;;5113494;28;20039;-47
2022/06/30 03:28:35;;;;;;;8.35;6.20;;;19.00;99.90;;;;;;5113430;28;20085;-50
2022/06/30 03:31:01;;;;;;;8.27;6.20;;;19.00;99.90;;;;;;5113555;28;20039;-50
2022/06/30 03:33:27;;;;;;;10.85;6.15;;;19.00;99.90;;;;;;5094784;28;20043;-48
2022/06/30 03:35:53;;;;;;;10.02;6.25;;;19.00;99.90;;;;;;5113284;28;20051;-45
2022/06/30 03:38:19;;;;;;;8.95;6.03;;;19.00;99.90;;;;;;5113386;28;20039;-48
2022/06/30 03:40:45;;;;;;;8.07;5.88;;;19.00;99.90;;;;;;5112872;28;20184;-52
2022/06/30 03:43:11;;;;;;;9.07;6.38;;;19.00;99.90;;;;;;5113074;28;20110;-48
2022/06/30 03:45:37;;;;;;;9.30;5.90;;;19.00;99.90;;;;;;5113080;28;20497;-46
2022/06/30 03:48:06;;;;;;;9.40;6.00;;;18.90;99.90;;;;;;5113390;28;20039;-47
2022/06/30 03:50:33;;;;;;;8.00;6.03;;;18.90;99.90;;;;;;5111677;28;20039;-49
2022/06/30 03:53:00;;;;;;;9.10;6.22;;;18.90;99.90;;;;;;5113154;28;20504;-49
2022/06/30 03:55:26;;;;;;;8.57;6.50;;;18.90;99.90;;;;;;5113090;28;20715;-48
2022/06/30 03:57:52;;;;;;;8.82;6.32;;;18.80;99.90;;;;;;5112665;28;20036;-50
2022/06/30 04:00:18;;;;;;;7.15;6.13;;;18.80;99.90;;;;;;5112791;28;20031;-50
2022/06/30 04:02:43;;;;;;;9.50;6.13;;;18.80;99.90;;;;;;5111298;28;20047;-50
2022/06/30 04:05:09;;;;;;;10.00;6.45;;;18.80;99.90;;;;;;5113030;28;20055;-47
2022/06/30 04:07:40;;;;;;;9.25;6.40;;;18.80;99.90;;;;;;5112502;28;20398;-51
2022/06/30 04:10:06;;;;;;;9.40;6.30;;;18.70;99.90;;;;;;5085163;27;20058;-50
2022/06/30 04:12:32;;;;;;;8.45;6.38;;;18.70;99.90;;;;;;5132822;27;20041;-46
2022/06/30 04:14:57;;;;;;;8.55;6.55;;;18.60;99.90;;;;;;5114840;27;20047;-51
2022/06/30 04:17:23;;;;;;;9.38;6.80;;;18.70;99.90;;;;;;5133008;27;20092;-51
2022/06/30 04:19:48;;;;;;;10.68;6.82;;;18.60;99.90;;;;;;5132996;27;20058;-52
2022/06/30 04:22:14;;;;;;;12.25;6.30;;;18.60;99.90;;;;;;5133258;27;20116;-49
2022/06/30 04:24:40;;;;;;;10.45;6.80;;;18.60;99.90;;;;;;5132615;27;20035;-48
2022/06/30 04:27:06;;;;;;;9.20;6.93;;;18.70;99.90;;;;;;5133336;27;20687;-49
2022/06/30 04:29:31;;;;;;;8.88;6.15;;;18.70;99.90;;;;;;5132695;27;20058;-50
2022/06/30 04:34:41;;;;;;;;;;;18.80;99.90;;;;;;5133191;27;20035;-50
2022/06/30 04:37:07;;;;;;;8.80;6.60;;;18.70;99.90;;;;;;5132501;27;19919;-47
2022/06/30 04:39:32;;;;;;;11.27;6.55;;;18.70;99.90;;;;;;5132576;27;20114;-48
2022/06/30 04:41:58;;;;;;;10.05;6.65;;;18.70;99.90;;;;;;5132378;27;20031;-49
2022/06/30 04:44:24;;;;;;;9.82;6.88;;;18.70;99.90;;;;;;5132264;27;20043;-46
2022/06/30 04:46:49;;;;;;;8.88;6.78;;;18.80;99.90;;;;;;5132567;27;20034;-49
2022/06/30 04:49:15;;;;;;;7.93;6.57;;;18.80;99.90;;;;;;5132276;27;20400;-52
2022/06/30 04:51:41;;;;;;;9.93;6.95;;;18.80;99.90;;;;;;5112917;27;20474;-49
2022/06/30 04:54:06;;;;;;;10.10;7.03;;;18.80;99.90;;;;;;5093022;28;20031;-49
2022/06/30 04:56:32;;;;;;;9.82;6.97;;;18.90;99.90;;;;;;5111732;28;20032;-49
2022/06/30 04:58:58;;;;;;;9.73;7.38;;;18.90;99.90;;;;;;5093169;28;20775;-50
2022/06/30 05:01:23;;;;;;;10.25;7.32;;;18.90;99.90;;;;;;5106500;28;20055;-47
2022/06/30 05:03:49;;;;;;;10.45;6.82;;;18.90;99.90;;;;;;5111162;27;20047;-49
2022/06/30 05:06:15;;;;;;;9.30;7.10;;;18.90;99.90;;;;;;5092417;28;20050;-51
2022/06/30 05:08:41;;;;;;;11.07;7.15;;;19.00;99.90;;;;;;5110202;28;20047;-47
2022/06/30 05:11:06;;;;;;;8.68;6.75;;;19.00;99.90;;;;;;5109842;28;20158;-52
2022/06/30 05:13:32;;;;;;;8.02;6.88;;;19.00;99.90;;;;;;5110283;28;20031;-47
2022/06/30 05:15:58;;;;;;;10.63;6.75;;;19.10;99.90;;;;;;5110379;28;20043;-46
2022/06/30 05:18:26;;;;;;;8.07;7.15;;;19.10;99.90;;;;;;5091135;28;20105;-52
2022/06/30 05:20:52;;;;;;;9.98;7.47;;;19.10;99.90;;;;;;5109900;28;20038;-48
2022/06/30 05:23:18;;;;;;;10.73;8.02;;;19.20;99.90;;;;;;5102472;27;20116;-47
2022/06/30 05:28:28;;;;;;;11.18;7.65;;;19.30;99.90;;;;;;5095847;28;20039;-50
2022/06/30 05:30:56;;;;;;;9.30;7.57;;;19.40;99.90;;;;;;5097538;28;20043;-50
2022/06/30 05:33:22;;;;;;;9.43;8.07;;;19.40;99.90;;;;;;5095811;28;20122;-49
2022/06/30 05:35:49;;;;;;;10.07;7.18;;;19.50;99.90;;;;;;5098013;28;20054;-53
2022/06/30 05:38:15;;;;;;;10.70;7.97;;;19.50;99.90;;;;;;5098295;28;20055;-51
2022/06/30 05:40:41;;;;;;;10.82;8.32;;;19.60;99.90;;;;;;5097380;28;20043;-48
2022/06/30 05:43:11;;;;;;;11.50;8.75;;;19.70;99.90;;;;;;5097026;28;20032;-49
2022/06/30 05:45:37;;;;;;;11.13;8.80;;;19.70;99.90;;;;;;5097558;28;20539;-48
2022/06/30 05:48:04;;;;;;;10.20;8.15;;;19.70;99.90;;;;;;5097419;28;20043;-50
2022/06/30 05:50:30;;;;;;;12.70;8.38;;;19.80;99.90;;;;;;5097830;27;20516;-51
2022/06/30 05:52:56;;;;;;;12.38;8.57;;;19.80;99.90;;;;;;5097656;28;20127;-49
2022/06/30 05:55:22;;;;;;;9.73;8.73;;;20.00;99.90;;;;;;5097807;28;20040;-50
2022/06/30 05:57:54;;;;;;;9.95;8.52;;;19.90;99.90;;;;;;5097641;28;20036;-50
2022/06/30 06:00:21;;;;;;;11.30;8.90;;;20.00;99.90;;;;;;5097382;28;20031;-48
2022/06/30 06:02:47;;;;;;;11.82;8.85;;;20.10;99.90;;;;;;5097570;28;20059;-45
2022/06/30 06:05:13;;;;;;;11.10;8.98;;;20.10;99.90;;;;;;5097361;28;20056;-46
2022/06/30 06:07:39;;;;;;;12.13;9.48;;;20.20;99.90;;;;;;5097626;28;20040;-50
2022/06/30 06:10:05;;;;;;;12.18;9.63;;;20.30;99.90;;;;;;5097278;28;20130;-48
2022/06/30 06:12:31;;;;;;;12.82;9.38;;;20.40;99.90;;;;;;5076898;28;20067;-50
2022/06/30 06:14:57;;;;;;;12.10;9.55;;;20.50;99.90;;;;;;5098405;28;20074;-52
2022/06/30 06:17:22;;;;;;;14.18;10.25;;;20.60;99.90;;;;;;5096957;28;20039;-50
2022/06/30 06:19:48;;;;;;;13.38;10.27;;;20.60;99.90;;;;;;5098178;28;20033;-47
2022/06/30 06:22:14;;;;;;;13.82;10.07;;;20.70;99.90;;;;;;5097511;28;20081;-50
2022/06/30 06:24:39;;;;;;;14.73;11.57;;;20.80;99.90;;;;;;5097583;28;20035;-48
2022/06/30 06:27:05;;;;;;;15.13;11.25;;;20.90;99.90;;;;;;5100999;28;20054;-50
2022/06/30 06:29:31;;;;;;;13.75;11.02;;;20.90;99.90;;;;;;5079308;28;20074;-50
2022/06/30 06:31:56;;;;;;;15.00;11.30;;;21.00;99.90;;;;;;5100615;27;20423;-50
2022/06/30 06:34:22;;;;;;;13.27;11.45;;;21.10;99.90;;;;;;5078706;28;20043;-52
2022/06/30 06:36:48;;;;;;;13.98;11.57;;;21.10;99.90;;;;;;5082039;28;20393;-47
2022/06/30 06:39:14;;;;;;;15.25;12.13;;;21.20;99.90;;;;;;5100727;28;20035;-51
2022/06/30 06:41:39;;;;;;;14.50;11.52;;;21.20;99.90;;;;;;5099845;27;20027;-50
2022/06/30 06:44:05;;;;;;;16.08;11.88;;;21.20;99.90;;;;;;5101026;28;20066;-48
2022/06/30 06:46:32;;;;;;;16.98;12.57;;;21.30;99.90;;;;;;5079360;28;20106;-48
2022/06/30 06:49:03;;;;;;;15.75;12.38;;;21.30;99.90;;;;;;5100908;27;20042;-50
2022/06/30 06:51:29;;;;;;;16.50;13.18;;;21.40;99.90;;;;;;5100559;28;20127;-51
2022/06/30 06:53:55;;;;;;;17.90;13.13;;;21.40;99.90;;;;;;5099721;28;20027;-48
2022/06/30 06:56:21;;;;;;;19.70;13.25;;;21.50;99.90;;;;;;5099710;28;20034;-49
2022/06/30 06:58:47;;;;;;;14.95;12.75;;;21.60;99.90;;;;;;5108092;27;20036;-50
2022/06/30 07:01:13;;;;;;;16.70;12.73;;;21.60;99.90;;;;;;5112190;28;20484;-51
2022/06/30 07:03:39;;;;;;;14.95;13.10;;;21.70;99.90;;;;;;5112278;28;20555;-50
2022/06/30 07:06:06;;;;;;;16.75;13.45;;;21.80;99.90;;;;;;5113960;28;20024;-51
2022/06/30 07:08:32;;;;;;;17.67;13.93;;;21.80;99.90;;;;;;5114089;28;20535;-52
2022/06/30 07:10:58;;;;;;;17.38;13.55;;;21.90;99.90;;;;;;5113510;28;20036;-52
2022/06/30 07:13:24;;;;;;;15.15;12.63;;;21.90;99.90;;;;;;5113660;28;20035;-46
2022/06/30 07:15:50;;;;;;;15.52;13.15;;;22.00;99.90;;;;;;5113938;28;20147;-47
2022/06/30 07:18:15;;;;;;;15.50;13.75;;;22.10;99.90;;;;;;5113952;28;20375;-52
2022/06/30 07:20:41;;;;;;;15.38;13.15;;;22.20;99.90;;;;;;5113493;28;20031;-52
2022/06/30 07:23:07;;;;;;;16.50;13.57;;;22.20;99.90;;;;;;5095291;28;20036;-51
2022/06/30 07:25:33;;;;;;;16.38;14.25;;;22.30;99.90;;;;;;5113458;28;20036;-49
2022/06/30 07:27:58;;;;;;;18.10;13.85;;;22.30;99.90;;;;;;5113273;28;20044;-54
2022/06/30 07:30:25;;;;;;;16.88;14.02;;;22.40;99.90;;;;;;5113747;28;20075;-51
2022/06/30 07:32:51;;;;;;;17.45;13.60;;;22.40;99.90;;;;;;5113389;28;20106;-50
2022/06/30 07:35:17;;;;;;;17.45;14.40;;;22.50;99.90;;;;;;5113763;28;20035;-49
2022/06/30 07:37:43;;;;;;;18.05;15.10;;;22.50;99.90;;;;;;5112785;28;20035;-50
2022/06/30 07:40:11;;;;;;;19.23;14.40;;;22.50;99.90;;;;;;5113127;28;20391;-51
2022/06/30 07:42:37;;;;;;;16.75;14.00;;;22.60;99.90;;;;;;5077985;28;20067;-51
2022/06/30 07:45:04;;;;;;;17.77;14.40;;;22.60;99.90;;;;;;5113470;28;20067;-49
2022/06/30 07:47:30;;;;;;;15.05;13.45;;;22.70;99.90;;;;;;5095053;28;20110;-51
2022/06/30 07:49:55;;;;;;;16.13;13.68;;;22.80;99.90;;;;;;5112894;28;20455;-51
2022/06/30 07:52:21;;;;;;;18.30;14.30;;;22.90;99.90;;;;;;5112951;28;20172;-50
2022/06/30 07:54:47;;;;;;;18.10;14.85;;;23.00;99.90;;;;;;5094709;28;20043;-54
2022/06/30 07:57:12;;;;;;;16.80;14.55;;;23.10;99.90;;;;;;5112866;27;20048;-52
2022/06/30 07:59:39;;;;;;;19.15;14.45;;;23.10;99.90;;;;;;5113153;28;20148;-52
2022/06/30 08:02:05;;;;;;;21.00;15.13;;;23.10;99.90;;;;;;5112586;28;20041;-48
2022/06/30 08:04:31;;;;;;;17.73;14.80;;;23.20;99.90;;;;;;5112490;28;20051;-53
2022/06/30 08:06:57;;;;;;;18.90;15.02;;;23.30;99.90;;;;;;5113015;27;20051;-53
2022/06/30 08:09:23;;;;;;;16.83;14.13;;;23.30;99.90;;;;;;5077403;28;20051;-49
2022/06/30 08:11:48;;;;;;;18.92;14.93;;;23.50;99.90;;;;;;5112427;28;20043;-52
2022/06/30 08:14:14;;;;;;;16.30;14.30;;;23.50;99.90;;;;;;5112862;28;20046;-50
2022/06/30 08:16:39;;;;;;;18.05;14.48;;;23.50;99.90;;;;;;5112777;28;20123;-51
2022/06/30 08:19:05;;;;;;;19.15;15.75;;;23.60;99.90;;;;;;5112626;28;20556;-49
2022/06/30 08:21:31;;;;;;;16.52;14.73;;;23.60;99.90;;;;;;5112335;28;20737;-49
2022/06/30 08:23:57;;;;;;;19.50;14.65;;;23.70;99.90;;;;;;5110095;28;20047;-51
2022/06/30 08:26:22;;;;;;;19.02;14.35;;;23.80;99.90;;;;;;5094352;28;20040;-52
2022/06/30 08:28:49;;;;;;;18.45;15.10;;;23.80;99.90;;;;;;5112620;28;20038;-51
2022/06/30 08:31:16;;;;;;;17.52;13.85;;;23.80;99.90;;;;;;5112431;27;20414;-53
2022/06/30 08:33:42;;;;;;;18.17;12.88;;;23.90;99.90;;;;;;5112576;28;20395;-51
2022/06/30 08:36:08;;;;;;;18.27;14.27;;;23.90;99.90;;;;;;5112367;28;20042;-52
2022/06/30 08:38:34;;;;;;;17.48;14.13;;;23.90;99.90;;;;;;5112289;28;20126;-49
2022/06/30 08:43:45;;;;;;;18.42;15.38;;;24.00;99.90;;;;;;5111177;28;20043;-52
2022/06/30 08:46:12;;;;;;;17.38;13.57;;;24.10;99.90;;;;;;5111706;28;20066;-52
2022/06/30 08:48:38;;;;;;;13.90;12.32;;;24.10;99.90;;;;;;5105645;28;20122;-51
2022/06/30 08:51:06;;;;;;;17.88;14.98;;;24.30;99.90;;;;;;5109806;28;20123;-54
2022/06/30 08:53:39;;;;;;;22.00;14.32;;;24.40;99.90;;;;;;5086990;28;20051;-50
2022/06/30 08:56:06;;;;;;;16.38;14.02;;;24.50;99.90;;;;;;5106158;28;20040;-51
2022/06/30 08:58:33;;;;;;;27.65;13.38;;;24.60;99.90;;;;;;5109063;28;20136;-47
2022/06/30 09:00:58;;;;;;;18.85;13.80;;;24.90;99.90;;;;;;5109477;28;20089;-52
2022/06/30 09:03:24;;;;;;;15.38;12.60;;;25.00;99.90;;;;;;5106293;28;20051;-48
2022/06/30 09:05:50;;;;;;;21.00;14.98;;;25.00;99.90;;;;;;5110059;28;20119;-53
2022/06/30 09:08:17;;;;;;;17.58;14.50;;;25.00;99.90;;;;;;5107041;28;20050;-48
2022/06/30 09:10:52;;;;;;;16.02;13.65;;;25.20;99.90;;;;;;5108404;28;20035;-49
2022/06/30 09:13:18;;;;;;;20.75;14.10;;;25.50;99.90;;;;;;5109569;27;20043;-50
2022/06/30 09:15:44;;;;;;;18.40;14.85;;;25.60;99.90;;;;;;5109620;28;20049;-50
2022/06/30 09:18:27;;;;;;;21.40;14.93;;;25.80;99.90;;;;;;5109343;28;20122;-49
2022/06/30 09:20:54;;;;;;;15.50;12.15;;;26.00;99.90;;;;;;5109002;28;20046;-48
2022/06/30 09:23:21;;;;;;;14.02;11.02;;;26.00;99.90;;;;;;5109481;28;20039;-47
2022/06/30 09:25:49;;;;;;;18.90;13.07;;;26.30;99.90;;;;;;5102407;28;20070;-52
2022/06/30 09:28:15;;;;;;;19.27;13.40;;;26.20;99.90;;;;;;5106893;28;20040;-50
2022/06/30 09:30:41;;;;;;;19.10;14.27;;;26.30;99.90;;;;;;5107377;28;20097;-48
2022/06/30 09:33:09;;;;;;;15.75;11.68;;;26.20;99.90;;;;;;5105647;28;20040;-55
2022/06/30 09:35:37;;;;;;;17.92;11.55;;;26.40;99.90;;;;;;5107099;28;20491;-50
2022/06/30 09:38:05;;;;;;;14.85;10.77;;;26.50;99.90;;;;;;5108443;28;20086;-52
2022/06/30 09:40:37;;;;;;;12.70;9.63;;;26.50;99.90;;;;;;5090000;28;20038;-52
2022/06/30 09:43:04;;;;;;;14.20;10.48;;;26.40;99.90;;;;;;5090401;28;20364;-52
2022/06/30 09:45:38;;;;;;;16.58;9.50;;;26.70;99.90;;;;;;5109639;28;20448;-54
2022/06/30 09:48:06;;;;;;;15.93;11.52;;;26.70;99.90;;;;;;5109630;28;20078;-52
2022/06/30 09:50:31;;;;;;;17.60;11.48;;;26.70;99.90;;;;;;5091154;27;20151;-52
2022/06/30 09:53:05;;;;;;;16.67;13.10;;;26.60;99.90;;;;;;5106065;28;20510;-47
2022/06/30 09:55:37;;;;;;;19.48;16.05;;;26.60;99.90;;;;;;5105692;28;20034;-47
2022/06/30 09:58:03;;;;;;;19.00;16.10;;;26.50;99.90;;;;;;5103945;28;20112;-47
2022/06/30 10:00:29;;;;;;;23.17;18.00;;;26.50;99.90;;;;;;5103957;28;20036;-49
2022/06/30 10:03:05;;;;;;;25.08;18.60;;;26.50;99.90;;;;;;5110023;27;20060;-48
2022/06/30 10:05:31;;;;;;;20.67;17.52;;;26.40;99.90;;;;;;5110795;27;20036;-44
2022/06/30 10:07:58;;;;;;;23.40;18.17;;;26.50;99.90;;;;;;5112984;28;20045;-46
2022/06/30 10:10:24;;;;;;;19.60;17.00;;;26.40;99.90;;;;;;5108860;28;20098;-46
2022/06/30 10:12:52;;;;;;;22.20;16.27;;;26.50;99.90;;;;;;5093253;28;20075;-48
2022/06/30 10:15:20;;;;;;;19.95;15.55;;;26.70;99.90;;;;;;5109615;28;20504;-51
2022/06/30 10:17:55;;;;;;;18.52;14.18;;;26.40;99.90;;;;;;5110751;28;20130;-44
2022/06/30 10:20:21;;;;;;;16.15;11.10;;;26.60;99.90;;;;;;5103255;28;20039;-47
2022/06/30 10:22:47;;;;;;;11.70;7.93;;;26.70;99.90;;;;;;5108673;27;20035;-46
2022/06/30 10:25:13;;;;;;;11.15;6.20;;;26.70;99.90;;;;;;5108954;28;20035;-45
2022/06/30 10:27:39;;;;;;;13.07;6.78;;;26.40;99.90;;;;;;5104976;28;20047;-47
2022/06/30 10:30:12;;;;;;;10.70;5.38;;;26.70;99.90;;;;;;5109206;28;20039;-49
2022/06/30 10:33:17;;;;;;;10.80;5.82;;;26.80;99.90;;;;;;5106539;27;20118;-48
2022/06/30 10:35:48;;;;;;;11.95;8.88;;;26.60;99.90;;;;;;5107075;27;20040;-46
2022/06/30 10:38:57;;;;;;;9.45;6.88;;;26.30;99.90;;;;;;5102695;27;20521;-47
2022/06/30 10:41:24;;;;;;;10.45;6.28;;;26.50;99.90;;;;;;5101761;27;20522;-46
2022/06/30 10:44:05;;;;;;;10.13;5.32;;;26.80;99.90;;;;;;5096785;28;20413;-49
2022/06/30 10:46:56;;;;;;;8.13;4.53;;;26.50;99.90;;;;;;5099334;28;20028;-47
2022/06/30 10:49:24;;;;;;;10.57;5.20;;;26.60;98.90;;;;;;5096179;28;20051;-45
2022/06/30 10:51:51;;;;;;;10.35;4.03;;;26.50;99.90;;;;;;5104642;28;20032;-47
2022/06/30 10:54:31;;;;;;;9.05;4.45;;;26.70;99.40;;;;;;5102483;28;20398;-46
2022/06/30 10:56:58;;;;;;;13.48;8.95;;;26.60;97.80;;;;;;5086922;28;20062;-50
2022/06/30 10:59:32;;;;;;;15.23;8.95;;;26.60;99.30;;;;;;5087507;28;20051;-49
2022/06/30 11:02:16;;;;;;;10.55;7.22;;;26.70;99.90;;;;;;5084510;28;20044;-48
2022/06/30 11:04:43;;;;;;;;;;;26.70;98.80;;;;;;5085614;28;20447;-46
2022/06/30 11:07:20;;;;;;;12.00;9.68;;;26.90;99.90;;;;;;5104498;27;20287;-48
2022/06/30 11:09:48;;;;;;;16.20;11.48;;;27.10;99.90;;;;;;5110220;28;20050;-47
2022/06/30 11:12:19;;;;;;;16.50;13.30;;;27.20;99.90;;;;;;5091422;28;20497;-46
2022/06/30 11:14:53;;;;;;;15.77;11.90;;;27.10;99.90;;;;;;5110252;28;20047;-47
2022/06/30 11:17:21;;;;;;;20.92;13.15;;;27.20;99.90;;;;;;5090344;28;20066;-47
2022/06/30 11:19:48;;;;;;;17.77;13.13;;;27.30;99.90;;;;;;5108986;28;20039;-45
2022/06/30 11:22:15;;;;;;;20.52;13.02;;;27.40;99.90;;;;;;5110636;28;20039;-46
2022/06/30 11:24:45;;;;;;;17.65;11.02;;;27.30;99.90;;;;;;5108470;28;20039;-51
2022/06/30 11:27:17;;;;;;;19.75;12.52;;;27.50;99.90;;;;;;5091535;28;20077;-46
2022/06/30 11:29:45;;;;;;;16.17;11.45;;;27.40;99.90;;;;;;5108929;27;20093;-47
2022/06/30 11:32:11;;;;;;;15.50;10.82;;;27.30;99.90;;;;;;5109599;28;20046;-47
2022/06/30 11:34:38;;;;;;;12.52;10.57;;;27.60;99.90;;;;;;5104743;28;20039;-45
2022/06/30 11:37:04;;;;;;;15.48;12.07;;;27.70;99.90;;;;;;5107632;28;20065;-48
2022/06/30 11:39:31;;;;;;;16.00;9.85;;;27.20;99.90;;;;;;5109206;28;20046;-46
2022/06/30 11:41:59;;;;;;;13.20;9.30;;;27.30;99.90;;;;;;5106850;28;20039;-49
2022/06/30 11:44:31;;;;;;;12.57;8.23;;;27.30;99.90;;;;;;5110269;28;20047;-47
2022/06/30 11:47:02;;;;;;;12.75;9.27;;;27.60;99.90;;;;;;5108451;28;20123;-47
2022/06/30 11:49:39;;;;;;;16.02;9.75;;;27.50;99.90;;;;;;5103805;28;20032;-47
2022/06/30 11:52:23;;;;;;;10.77;8.60;;;27.40;99.90;;;;;;5108458;27;21028;-47
2022/06/30 11:54:50;;;;;;;;;;;27.70;99.90;;;;;;5091400;28;20039;-44
2022/06/30 11:57:19;;;;;;;12.60;6.70;;;27.70;99.90;;;;;;5109011;28;19972;-46
2022/06/30 11:59:49;;;;;;;10.63;5.40;;;27.80;99.90;;;;;;5109289;28;20081;-45
2022/06/30 12:02:16;;;;;;;10.60;6.00;;;27.70;99.30;;;;;;5110716;28;20153;-47
2022/06/30 12:04:43;;;;;;;7.68;4.50;;;27.60;99.30;;;;;;5111527;28;20043;-48
2022/06/30 12:07:14;;;;;;;8.02;3.90;;;27.30;98.80;;;;;;5111199;28;20407;-50
2022/06/30 12:09:42;;;;;;;8.98;3.83;;;27.60;98.60;;;;;;5108136;28;20047;-46
2022/06/30 12:12:09;;;;;;;10.45;3.80;;;27.70;99.10;;;;;;5110475;28;20072;-48
2022/06/30 12:14:37;;;;;;;8.27;2.88;;;27.70;98.50;;;;;;5108004;28;20096;-49
2022/06/30 12:17:08;;;;;;;9.30;3.42;;;28.00;98.80;;;;;;5111352;28;20090;-49
2022/06/30 12:19:35;;;;;;;7.15;3.42;;;27.80;97.70;;;;;;5093776;28;20051;-49
2022/06/30 12:22:02;;;;;;;7.75;3.30;;;27.70;98.10;;;;;;5111293;27;20035;-50
2022/06/30 12:24:29;;;;;;;12.75;3.50;;;27.90;98.70;;;;;;5111535;28;20114;-47
2022/06/30 12:26:57;;;;;;;8.73;4.00;;;27.80;98.90;;;;;;5111540;28;20047;-46
2022/06/30 12:29:26;;;;;;;8.05;3.30;;;27.40;98.90;;;;;;5093956;28;20040;-47
2022/06/30 12:31:57;;;;;;;11.30;4.38;;;27.50;98.90;;;;;;5111913;28;20043;-48
2022/06/30 12:34:24;;;;;;;10.02;3.97;;;27.30;99.00;;;;;;5112114;28;20035;-50
2022/06/30 12:36:50;;;;;;;8.35;3.80;;;27.10;99.50;;;;;;5111337;28;20072;-46
2022/06/30 12:39:16;;;;;;;9.88;4.78;;;27.40;99.90;;;;;;5111919;28;20050;-47
2022/06/30 12:41:45;;;;;;;11.32;4.10;;;27.30;99.90;;;;;;5111110;28;20071;-49
2022/06/30 12:44:10;;;;;;;10.52;4.55;;;27.40;99.90;;;;;;5092910;28;20042;-48
2022/06/30 12:46:41;;;;;;;11.07;4.95;;;27.40;99.90;;;;;;5092794;28;20478;-47
2022/06/30 12:49:19;;;;;;;12.20;4.05;;;27.40;99.90;;;;;;5111595;28;20028;-47